sensor_id;sensor_type;location;lat;lon;timestamp;P1;P2;P0
49644;PMS5003;36494;50.730;-1.932;2023-05-16T00:00:10;1;1;
49644;PMS5003;36494;50.730;-1.932;2023-05-16T00:02:35;3;3;
49644;PMS5003;36494;50.730;-1.932;2023-05-16T00:05:01;2;2;
49644;PMS5003;36494;50.730;-1.932;2023-05-16T00:07:26;1;1;
49644;PMS5003;36494;50.730;-1.932;2023-05-16T00:09:52;2;1;
49644;PMS5003;36494;50.730;-1.932;2023-05-16T00:12:17;3;3;
49644;PMS5003;36494;50.730;-1.932;2023-05-16T00:14:42;2;2;
49644;PMS5003;36494;50.730;-1.932;2023-05-16T00:17:08;1;1;
49644;PMS5003;36494;50.730;-1.932;2023-05-16T00:19:33;2;2;
49644;PMS5003;36494;50.730;-1.932;2023-05-16T00:21:58;1;1;
49644;PMS5003;36494;50.730;-1.932;2023-05-16T00:24:24;3;3;
49644;PMS5003;36494;50.730;-1.932;2023-05-16T00:26:49;0;0;
49644;PMS5003;36494;50.730;-1.932;2023-05-16T00:29:15;2;2;
49644;PMS5003;36494;50.730;-1.932;2023-05-16T00:31:40;2;2;
49644;PMS5003;36494;50.730;-1.932;2023-05-16T00:34:05;3;3;
49644;PMS5003;36494;50.730;-1.932;2023-05-16T00:36:31;1;1;
49644;PMS5003;36494;50.730;-1.932;2023-05-16T00:38:56;2;1;
49644;PMS5003;36494;50.730;-1.932;2023-05-16T00:41:22;3;3;
49644;PMS5003;36494;50.730;-1.932;2023-05-16T00:43:47;4;2;
49644;PMS5003;36494;50.730;-1.932;2023-05-16T00:46:12;3;2;
49644;PMS5003;36494;50.730;-1.932;2023-05-16T00:48:37;3;2;
49644;PMS5003;36494;50.730;-1.932;2023-05-16T00:51:03;2;2;
49644;PMS5003;36494;50.730;-1.932;2023-05-16T00:53:28;2;2;
49644;PMS5003;36494;50.730;-1.932;2023-05-16T00:55:54;2;2;
49644;PMS5003;36494;50.730;-1.932;2023-05-16T00:58:19;2;1;
49644;PMS5003;36494;50.730;-1.932;2023-05-16T01:00:44;1;1;
49644;PMS5003;36494;50.730;-1.932;2023-05-16T01:03:10;3;3;
49644;PMS5003;36494;50.730;-1.932;2023-05-16T01:05:35;2;1;
49644;PMS5003;36494;50.730;-1.932;2023-05-16T01:08:01;3;2;
49644;PMS5003;36494;50.730;-1.932;2023-05-16T01:10:26;3;3;
49644;PMS5003;36494;50.730;-1.932;2023-05-16T01:12:54;3;3;
49644;PMS5003;36494;50.730;-1.932;2023-05-16T01:15:18;5;5;
49644;PMS5003;36494;50.730;-1.932;2023-05-16T01:17:44;5;5;
49644;PMS5003;36494;50.730;-1.932;2023-05-16T01:20:08;4;4;
49644;PMS5003;36494;50.730;-1.932;2023-05-16T01:22:40;4;3;
49644;PMS5003;36494;50.730;-1.932;2023-05-16T01:25:03;4;4;
49644;PMS5003;36494;50.730;-1.932;2023-05-16T01:27:24;4;4;
49644;PMS5003;36494;50.730;-1.932;2023-05-16T01:29:50;2;2;
49644;PMS5003;36494;50.730;-1.932;2023-05-16T01:32:14;3;3;
49644;PMS5003;36494;50.730;-1.932;2023-05-16T01:34:40;3;2;
49644;PMS5003;36494;50.730;-1.932;2023-05-16T01:37:08;3;3;
49644;PMS5003;36494;50.730;-1.932;2023-05-16T01:39:32;3;3;
49644;PMS5003;36494;50.730;-1.932;2023-05-16T01:41:58;5;4;
49644;PMS5003;36494;50.730;-1.932;2023-05-16T01:44:24;4;4;
49644;PMS5003;36494;50.730;-1.932;2023-05-16T01:46:47;5;5;
49644;PMS5003;36494;50.730;-1.932;2023-05-16T01:49:14;5;5;
49644;PMS5003;36494;50.730;-1.932;2023-05-16T01:51:37;4;4;
49644;PMS5003;36494;50.730;-1.932;2023-05-16T01:54:04;9;7;
49644;PMS5003;36494;50.730;-1.932;2023-05-16T01:56:28;5;5;
49644;PMS5003;36494;50.730;-1.932;2023-05-16T01:58:53;4;3;
49644;PMS5003;36494;50.730;-1.932;2023-05-16T02:01:19;3;3;
49644;PMS5003;36494;50.730;-1.932;2023-05-16T02:03:44;2;2;
49644;PMS5003;36494;50.730;-1.932;2023-05-16T02:06:10;2;2;
49644;PMS5003;36494;50.730;-1.932;2023-05-16T02:08:35;1;1;
49644;PMS5003;36494;50.730;-1.932;2023-05-16T02:11:00;2;2;
49644;PMS5003;36494;50.730;-1.932;2023-05-16T02:13:26;3;2;
49644;PMS5003;36494;50.730;-1.932;2023-05-16T02:15:51;2;2;
49644;PMS5003;36494;50.730;-1.932;2023-05-16T02:18:16;3;2;
49644;PMS5003;36494;50.730;-1.932;2023-05-16T02:20:41;3;3;
49644;PMS5003;36494;50.730;-1.932;2023-05-16T02:23:07;2;2;
49644;PMS5003;36494;50.730;-1.932;2023-05-16T02:25:32;1;1;
49644;PMS5003;36494;50.730;-1.932;2023-05-16T02:27:58;2;1;
49644;PMS5003;36494;50.730;-1.932;2023-05-16T02:30:23;3;2;
49644;PMS5003;36494;50.730;-1.932;2023-05-16T02:32:48;1;1;
49644;PMS5003;36494;50.730;-1.932;2023-05-16T02:35:14;3;3;
49644;PMS5003;36494;50.730;-1.932;2023-05-16T02:37:40;3;3;
49644;PMS5003;36494;50.730;-1.932;2023-05-16T02:40:05;4;3;
49644;PMS5003;36494;50.730;-1.932;2023-05-16T02:42:30;3;3;
49644;PMS5003;36494;50.730;-1.932;2023-05-16T02:44:55;4;3;
49644;PMS5003;36494;50.730;-1.932;2023-05-16T02:47:21;7;5;
49644;PMS5003;36494;50.730;-1.932;2023-05-16T02:49:46;4;4;
49644;PMS5003;36494;50.730;-1.932;2023-05-16T02:52:11;3;3;
49644;PMS5003;36494;50.730;-1.932;2023-05-16T02:54:37;2;2;
49644;PMS5003;36494;50.730;-1.932;2023-05-16T02:57:02;3;3;
49644;PMS5003;36494;50.730;-1.932;2023-05-16T02:59:27;4;4;
49644;PMS5003;36494;50.730;-1.932;2023-05-16T03:01:53;4;4;
49644;PMS5003;36494;50.730;-1.932;2023-05-16T03:04:18;5;5;
49644;PMS5003;36494;50.730;-1.932;2023-05-16T03:06:44;6;6;
49644;PMS5003;36494;50.730;-1.932;2023-05-16T03:09:09;5;4;
49644;PMS5003;36494;50.730;-1.932;2023-05-16T03:11:35;5;5;
49644;PMS5003;36494;50.730;-1.932;2023-05-16T03:14:00;5;5;
49644;PMS5003;36494;50.730;-1.932;2023-05-16T03:16:25;6;6;
49644;PMS5003;36494;50.730;-1.932;2023-05-16T03:18:51;5;4;
49644;PMS5003;36494;50.730;-1.932;2023-05-16T03:21:16;2;2;
49644;PMS5003;36494;50.730;-1.932;2023-05-16T03:23:42;3;2;
49644;PMS5003;36494;50.730;-1.932;2023-05-16T03:26:07;5;4;
49644;PMS5003;36494;50.730;-1.932;2023-05-16T03:28:32;5;4;
49644;PMS5003;36494;50.730;-1.932;2023-05-16T03:30:58;3;3;
49644;PMS5003;36494;50.730;-1.932;2023-05-16T03:33:23;1;1;
49644;PMS5003;36494;50.730;-1.932;2023-05-16T03:35:48;6;3;
49644;PMS5003;36494;50.730;-1.932;2023-05-16T03:38:14;4;2;
49644;PMS5003;36494;50.730;-1.932;2023-05-16T03:40:39;4;3;
49644;PMS5003;36494;50.730;-1.932;2023-05-16T03:43:05;2;1;
49644;PMS5003;36494;50.730;-1.932;2023-05-16T03:45:30;2;2;
49644;PMS5003;36494;50.730;-1.932;2023-05-16T03:47:56;3;3;
49644;PMS5003;36494;50.730;-1.932;2023-05-16T03:50:21;3;3;
49644;PMS5003;36494;50.730;-1.932;2023-05-16T03:52:46;3;3;
49644;PMS5003;36494;50.730;-1.932;2023-05-16T03:55:12;5;4;
49644;PMS5003;36494;50.730;-1.932;2023-05-16T03:57:37;9;8;
49644;PMS5003;36494;50.730;-1.932;2023-05-16T04:00:03;4;4;
49644;PMS5003;36494;50.730;-1.932;2023-05-16T04:02:28;9;9;
49644;PMS5003;36494;50.730;-1.932;2023-05-16T04:04:53;4;4;
49644;PMS5003;36494;50.730;-1.932;2023-05-16T04:07:19;9;8;
49644;PMS5003;36494;50.730;-1.932;2023-05-16T04:09:44;3;3;
49644;PMS5003;36494;50.730;-1.932;2023-05-16T04:12:09;4;4;
49644;PMS5003;36494;50.730;-1.932;2023-05-16T04:14:35;3;3;
49644;PMS5003;36494;50.730;-1.932;2023-05-16T04:17:00;4;4;
49644;PMS5003;36494;50.730;-1.932;2023-05-16T04:19:25;4;4;
49644;PMS5003;36494;50.730;-1.932;2023-05-16T04:21:51;5;4;
49644;PMS5003;36494;50.730;-1.932;2023-05-16T04:24:17;6;6;
49644;PMS5003;36494;50.730;-1.932;2023-05-16T04:26:43;3;3;
49644;PMS5003;36494;50.730;-1.932;2023-05-16T04:29:08;5;5;
49644;PMS5003;36494;50.730;-1.932;2023-05-16T04:31:33;5;5;
49644;PMS5003;36494;50.730;-1.932;2023-05-16T04:33:59;6;5;
49644;PMS5003;36494;50.730;-1.932;2023-05-16T04:36:24;6;5;
49644;PMS5003;36494;50.730;-1.932;2023-05-16T04:38:49;6;6;
49644;PMS5003;36494;50.730;-1.932;2023-05-16T04:41:15;5;5;
49644;PMS5003;36494;50.730;-1.932;2023-05-16T04:43:40;6;5;
49644;PMS5003;36494;50.730;-1.932;2023-05-16T04:46:06;5;5;
49644;PMS5003;36494;50.730;-1.932;2023-05-16T04:48:31;7;7;
49644;PMS5003;36494;50.730;-1.932;2023-05-16T04:50:56;7;7;
49644;PMS5003;36494;50.730;-1.932;2023-05-16T04:53:22;7;7;
49644;PMS5003;36494;50.730;-1.932;2023-05-16T04:55:47;7;7;
49644;PMS5003;36494;50.730;-1.932;2023-05-16T04:58:12;8;8;
49644;PMS5003;36494;50.730;-1.932;2023-05-16T05:00:38;8;8;
49644;PMS5003;36494;50.730;-1.932;2023-05-16T05:03:03;5;5;
49644;PMS5003;36494;50.730;-1.932;2023-05-16T05:05:29;6;6;
49644;PMS5003;36494;50.730;-1.932;2023-05-16T05:07:54;6;6;
49644;PMS5003;36494;50.730;-1.932;2023-05-16T05:10:19;9;7;
49644;PMS5003;36494;50.730;-1.932;2023-05-16T05:12:45;7;7;
49644;PMS5003;36494;50.730;-1.932;2023-05-16T05:15:10;10;9;
49644;PMS5003;36494;50.730;-1.932;2023-05-16T05:17:36;8;8;
49644;PMS5003;36494;50.730;-1.932;2023-05-16T05:20:01;10;10;
49644;PMS5003;36494;50.730;-1.932;2023-05-16T05:22:27;10;10;
49644;PMS5003;36494;50.730;-1.932;2023-05-16T05:24:52;12;11;
49644;PMS5003;36494;50.730;-1.932;2023-05-16T05:27:18;12;12;
49644;PMS5003;36494;50.730;-1.932;2023-05-16T05:29:43;13;13;
49644;PMS5003;36494;50.730;-1.932;2023-05-16T05:32:09;5;4;
49644;PMS5003;36494;50.730;-1.932;2023-05-16T05:34:34;12;12;
49644;PMS5003;36494;50.730;-1.932;2023-05-16T05:37:00;11;11;
49644;PMS5003;36494;50.730;-1.932;2023-05-16T05:39:25;11;11;
49644;PMS5003;36494;50.730;-1.932;2023-05-16T05:41:51;7;7;
49644;PMS5003;36494;50.730;-1.932;2023-05-16T05:44:16;7;7;
49644;PMS5003;36494;50.730;-1.932;2023-05-16T05:46:41;7;7;
49644;PMS5003;36494;50.730;-1.932;2023-05-16T05:49:07;2;2;
49644;PMS5003;36494;50.730;-1.932;2023-05-16T05:51:32;4;4;
49644;PMS5003;36494;50.730;-1.932;2023-05-16T05:53:58;3;3;
49644;PMS5003;36494;50.730;-1.932;2023-05-16T05:56:23;2;2;
49644;PMS5003;36494;50.730;-1.932;2023-05-16T05:58:49;3;2;
49644;PMS5003;36494;50.730;-1.932;2023-05-16T06:01:14;2;2;
49644;PMS5003;36494;50.730;-1.932;2023-05-16T06:03:39;4;3;
49644;PMS5003;36494;50.730;-1.932;2023-05-16T06:06:05;2;1;
49644;PMS5003;36494;50.730;-1.932;2023-05-16T06:08:30;4;3;
49644;PMS5003;36494;50.730;-1.932;2023-05-16T06:10:56;2;2;
49644;PMS5003;36494;50.730;-1.932;2023-05-16T06:13:21;1;1;
49644;PMS5003;36494;50.730;-1.932;2023-05-16T06:15:48;2;2;
49644;PMS5003;36494;50.730;-1.932;2023-05-16T06:18:12;1;1;
49644;PMS5003;36494;50.730;-1.932;2023-05-16T06:20:37;5;4;
49644;PMS5003;36494;50.730;-1.932;2023-05-16T06:23:03;2;1;
49644;PMS5003;36494;50.730;-1.932;2023-05-16T06:25:28;2;2;
49644;PMS5003;36494;50.730;-1.932;2023-05-16T06:27:54;4;3;
49644;PMS5003;36494;50.730;-1.932;2023-05-16T06:30:19;1;1;
49644;PMS5003;36494;50.730;-1.932;2023-05-16T06:32:44;1;1;
49644;PMS5003;36494;50.730;-1.932;2023-05-16T06:35:10;1;1;
49644;PMS5003;36494;50.730;-1.932;2023-05-16T06:37:35;3;3;
49644;PMS5003;36494;50.730;-1.932;2023-05-16T06:40:01;1;1;
49644;PMS5003;36494;50.730;-1.932;2023-05-16T06:42:26;2;2;
49644;PMS5003;36494;50.730;-1.932;2023-05-16T06:44:51;2;2;
49644;PMS5003;36494;50.730;-1.932;2023-05-16T06:47:17;1;1;
49644;PMS5003;36494;50.730;-1.932;2023-05-16T06:49:42;1;1;
49644;PMS5003;36494;50.730;-1.932;2023-05-16T06:52:08;3;2;
49644;PMS5003;36494;50.730;-1.932;2023-05-16T06:54:33;2;2;
49644;PMS5003;36494;50.730;-1.932;2023-05-16T06:56:59;2;2;
49644;PMS5003;36494;50.730;-1.932;2023-05-16T06:59:24;1;1;
49644;PMS5003;36494;50.730;-1.932;2023-05-16T07:01:49;2;1;
49644;PMS5003;36494;50.730;-1.932;2023-05-16T07:04:15;1;1;
49644;PMS5003;36494;50.730;-1.932;2023-05-16T07:06:40;2;2;
49644;PMS5003;36494;50.730;-1.932;2023-05-16T07:09:05;1;1;
49644;PMS5003;36494;50.730;-1.932;2023-05-16T07:11:31;1;1;
49644;PMS5003;36494;50.730;-1.932;2023-05-16T07:13:56;0;0;
49644;PMS5003;36494;50.730;-1.932;2023-05-16T07:16:21;2;1;
49644;PMS5003;36494;50.730;-1.932;2023-05-16T07:18:47;2;2;
49644;PMS5003;36494;50.730;-1.932;2023-05-16T07:21:12;1;1;
49644;PMS5003;36494;50.730;-1.932;2023-05-16T07:23:37;2;2;
49644;PMS5003;36494;50.730;-1.932;2023-05-16T07:26:03;1;1;
49644;PMS5003;36494;50.730;-1.932;2023-05-16T07:28:28;3;3;
49644;PMS5003;36494;50.730;-1.932;2023-05-16T07:30:53;0;0;
49644;PMS5003;36494;50.730;-1.932;2023-05-16T07:33:18;1;1;
49644;PMS5003;36494;50.730;-1.932;2023-05-16T07:35:44;1;1;
49644;PMS5003;36494;50.730;-1.932;2023-05-16T07:38:09;1;1;
49644;PMS5003;36494;50.730;-1.932;2023-05-16T07:40:35;1;1;
49644;PMS5003;36494;50.730;-1.932;2023-05-16T07:43:00;2;2;
49644;PMS5003;36494;50.730;-1.932;2023-05-16T07:45:25;1;1;
49644;PMS5003;36494;50.730;-1.932;2023-05-16T07:47:50;2;2;
49644;PMS5003;36494;50.730;-1.932;2023-05-16T07:50:16;2;2;
49644;PMS5003;36494;50.730;-1.932;2023-05-16T07:52:41;2;2;
49644;PMS5003;36494;50.730;-1.932;2023-05-16T07:55:07;2;2;
49644;PMS5003;36494;50.730;-1.932;2023-05-16T07:57:32;1;1;
49644;PMS5003;36494;50.730;-1.932;2023-05-16T07:59:57;0;0;
49644;PMS5003;36494;50.730;-1.932;2023-05-16T08:02:22;3;3;
49644;PMS5003;36494;50.730;-1.932;2023-05-16T08:04:48;2;2;
49644;PMS5003;36494;50.730;-1.932;2023-05-16T08:07:13;1;1;
49644;PMS5003;36494;50.730;-1.932;2023-05-16T08:09:39;1;1;
49644;PMS5003;36494;50.730;-1.932;2023-05-16T08:12:04;1;1;
49644;PMS5003;36494;50.730;-1.932;2023-05-16T08:14:29;0;0;
49644;PMS5003;36494;50.730;-1.932;2023-05-16T08:16:55;1;1;
49644;PMS5003;36494;50.730;-1.932;2023-05-16T08:19:20;1;1;
49644;PMS5003;36494;50.730;-1.932;2023-05-16T08:21:45;1;1;
49644;PMS5003;36494;50.730;-1.932;2023-05-16T08:24:11;2;2;
49644;PMS5003;36494;50.730;-1.932;2023-05-16T08:26:36;0;0;
49644;PMS5003;36494;50.730;-1.932;2023-05-16T08:29:01;2;2;
49644;PMS5003;36494;50.730;-1.932;2023-05-16T08:31:27;1;1;
49644;PMS5003;36494;50.730;-1.932;2023-05-16T08:33:52;4;3;
49644;PMS5003;36494;50.730;-1.932;2023-05-16T08:36:17;2;2;
49644;PMS5003;36494;50.730;-1.932;2023-05-16T08:38:42;1;1;
49644;PMS5003;36494;50.730;-1.932;2023-05-16T08:41:08;2;1;
49644;PMS5003;36494;50.730;-1.932;2023-05-16T08:43:33;2;2;
49644;PMS5003;36494;50.730;-1.932;2023-05-16T08:45:58;3;3;
49644;PMS5003;36494;50.730;-1.932;2023-05-16T08:48:24;1;1;
49644;PMS5003;36494;50.730;-1.932;2023-05-16T08:50:49;2;2;
49644;PMS5003;36494;50.730;-1.932;2023-05-16T08:53:16;2;2;
49644;PMS5003;36494;50.730;-1.932;2023-05-16T08:55:40;2;1;
49644;PMS5003;36494;50.730;-1.932;2023-05-16T08:58:05;2;2;
49644;PMS5003;36494;50.730;-1.932;2023-05-16T09:00:30;1;1;
49644;PMS5003;36494;50.730;-1.932;2023-05-16T09:02:56;0;0;
49644;PMS5003;36494;50.730;-1.932;2023-05-16T09:05:22;3;2;
49644;PMS5003;36494;50.730;-1.932;2023-05-16T09:07:47;1;0;
49644;PMS5003;36494;50.730;-1.932;2023-05-16T09:10:12;1;1;
49644;PMS5003;36494;50.730;-1.932;2023-05-16T09:12:38;2;2;
49644;PMS5003;36494;50.730;-1.932;2023-05-16T09:15:03;1;1;
49644;PMS5003;36494;50.730;-1.932;2023-05-16T09:17:30;0;0;
49644;PMS5003;36494;50.730;-1.932;2023-05-16T09:19:53;1;1;
49644;PMS5003;36494;50.730;-1.932;2023-05-16T09:22:19;1;1;
49644;PMS5003;36494;50.730;-1.932;2023-05-16T09:24:44;1;1;
49644;PMS5003;36494;50.730;-1.932;2023-05-16T09:27:10;2;2;
49644;PMS5003;36494;50.730;-1.932;2023-05-16T09:29:35;0;0;
49644;PMS5003;36494;50.730;-1.932;2023-05-16T09:32:08;1;1;
49644;PMS5003;36494;50.730;-1.932;2023-05-16T09:34:25;2;2;
49644;PMS5003;36494;50.730;-1.932;2023-05-16T09:36:53;3;3;
49644;PMS5003;36494;50.730;-1.932;2023-05-16T09:39:16;1;1;
49644;PMS5003;36494;50.730;-1.932;2023-05-16T09:41:41;1;1;
49644;PMS5003;36494;50.730;-1.932;2023-05-16T09:44:07;2;2;
49644;PMS5003;36494;50.730;-1.932;2023-05-16T09:46:33;1;1;
49644;PMS5003;36494;50.730;-1.932;2023-05-16T09:48:57;2;1;
49644;PMS5003;36494;50.730;-1.932;2023-05-16T09:51:22;2;2;
49644;PMS5003;36494;50.730;-1.932;2023-05-16T09:53:48;4;4;
49644;PMS5003;36494;50.730;-1.932;2023-05-16T09:56:14;1;1;
49644;PMS5003;36494;50.730;-1.932;2023-05-16T09:58:39;3;2;
49644;PMS5003;36494;50.730;-1.932;2023-05-16T10:01:04;2;2;
49644;PMS5003;36494;50.730;-1.932;2023-05-16T10:03:29;1;1;
49644;PMS5003;36494;50.730;-1.932;2023-05-16T10:05:55;1;1;
49644;PMS5003;36494;50.730;-1.932;2023-05-16T10:08:20;0;0;
49644;PMS5003;36494;50.730;-1.932;2023-05-16T10:10:45;4;3;
49644;PMS5003;36494;50.730;-1.932;2023-05-16T10:13:10;2;2;
49644;PMS5003;36494;50.730;-1.932;2023-05-16T10:15:36;1;1;
49644;PMS5003;36494;50.730;-1.932;2023-05-16T10:18:01;1;1;
49644;PMS5003;36494;50.730;-1.932;2023-05-16T10:20:26;3;3;
49644;PMS5003;36494;50.730;-1.932;2023-05-16T10:22:52;3;3;
49644;PMS5003;36494;50.730;-1.932;2023-05-16T10:25:19;2;2;
49644;PMS5003;36494;50.730;-1.932;2023-05-16T10:27:42;2;2;
49644;PMS5003;36494;50.730;-1.932;2023-05-16T10:30:08;2;2;
49644;PMS5003;36494;50.730;-1.932;2023-05-16T10:32:33;2;2;
49644;PMS5003;36494;50.730;-1.932;2023-05-16T10:34:58;2;2;
49644;PMS5003;36494;50.730;-1.932;2023-05-16T10:37:23;3;3;
49644;PMS5003;36494;50.730;-1.932;2023-05-16T10:39:49;2;2;
49644;PMS5003;36494;50.730;-1.932;2023-05-16T10:42:14;2;2;
49644;PMS5003;36494;50.730;-1.932;2023-05-16T10:44:39;2;2;
49644;PMS5003;36494;50.730;-1.932;2023-05-16T10:47:04;3;3;
49644;PMS5003;36494;50.730;-1.932;2023-05-16T10:49:30;2;2;
49644;PMS5003;36494;50.730;-1.932;2023-05-16T10:52:02;2;2;
49644;PMS5003;36494;50.730;-1.932;2023-05-16T10:54:20;2;1;
49644;PMS5003;36494;50.730;-1.932;2023-05-16T10:56:46;2;2;
49644;PMS5003;36494;50.730;-1.932;2023-05-16T10:59:21;1;1;
49644;PMS5003;36494;50.730;-1.932;2023-05-16T11:01:36;2;2;
49644;PMS5003;36494;50.730;-1.932;2023-05-16T11:04:05;2;1;
49644;PMS5003;36494;50.730;-1.932;2023-05-16T11:06:27;2;2;
49644;PMS5003;36494;50.730;-1.932;2023-05-16T11:08:56;3;2;
49644;PMS5003;36494;50.730;-1.932;2023-05-16T11:18:33;3;3;
49644;PMS5003;36494;50.730;-1.932;2023-05-16T11:21:02;3;3;
49644;PMS5003;36494;50.730;-1.932;2023-05-16T11:23:24;2;2;
49644;PMS5003;36494;50.730;-1.932;2023-05-16T11:25:50;4;4;
49644;PMS5003;36494;50.730;-1.932;2023-05-16T11:28:14;4;4;
49644;PMS5003;36494;50.730;-1.932;2023-05-16T11:30:41;3;3;
49644;PMS5003;36494;50.730;-1.932;2023-05-16T11:33:05;4;3;
49644;PMS5003;36494;50.730;-1.932;2023-05-16T11:35:30;4;3;
49644;PMS5003;36494;50.730;-1.932;2023-05-16T11:37:56;3;3;
49644;PMS5003;36494;50.730;-1.932;2023-05-16T11:40:20;2;2;
49644;PMS5003;36494;50.730;-1.932;2023-05-16T11:42:46;4;3;
49644;PMS5003;36494;50.730;-1.932;2023-05-16T11:45:13;2;2;
49644;PMS5003;36494;50.730;-1.932;2023-05-16T11:47:36;3;2;
49644;PMS5003;36494;50.730;-1.932;2023-05-16T11:50:02;2;2;
49644;PMS5003;36494;50.730;-1.932;2023-05-16T11:52:27;3;3;
49644;PMS5003;36494;50.730;-1.932;2023-05-16T11:54:52;2;2;
49644;PMS5003;36494;50.730;-1.932;2023-05-16T11:57:19;2;2;
49644;PMS5003;36494;50.730;-1.932;2023-05-16T11:59:43;2;2;
49644;PMS5003;36494;50.730;-1.932;2023-05-16T12:02:08;2;2;
49644;PMS5003;36494;50.730;-1.932;2023-05-16T12:04:34;4;3;
49644;PMS5003;36494;50.730;-1.932;2023-05-16T12:07:00;2;2;
49644;PMS5003;36494;50.730;-1.932;2023-05-16T12:09:24;4;4;
49644;PMS5003;36494;50.730;-1.932;2023-05-16T12:11:49;3;2;
49644;PMS5003;36494;50.730;-1.932;2023-05-16T12:14:14;4;3;
49644;PMS5003;36494;50.730;-1.932;2023-05-16T12:16:40;4;4;
49644;PMS5003;36494;50.730;-1.932;2023-05-16T12:19:05;3;3;
49644;PMS5003;36494;50.730;-1.932;2023-05-16T12:21:30;3;2;
49644;PMS5003;36494;50.730;-1.932;2023-05-16T12:23:56;4;4;
49644;PMS5003;36494;50.730;-1.932;2023-05-16T12:26:23;2;2;
49644;PMS5003;36494;50.730;-1.932;2023-05-16T12:28:46;4;4;
49644;PMS5003;36494;50.730;-1.932;2023-05-16T12:33:37;2;2;
49644;PMS5003;36494;50.730;-1.932;2023-05-16T12:36:02;4;4;
49644;PMS5003;36494;50.730;-1.932;2023-05-16T12:38:27;4;4;
49644;PMS5003;36494;50.730;-1.932;2023-05-16T12:40:56;4;2;
49644;PMS5003;36494;50.730;-1.932;2023-05-16T12:43:18;5;5;
49644;PMS5003;36494;50.730;-1.932;2023-05-16T12:45:48;4;4;
49644;PMS5003;36494;50.730;-1.932;2023-05-16T12:48:11;3;3;
49644;PMS5003;36494;50.730;-1.932;2023-05-16T12:50:33;3;2;
49644;PMS5003;36494;50.730;-1.932;2023-05-16T12:52:59;4;4;
49644;PMS5003;36494;50.730;-1.932;2023-05-16T12:55:24;4;4;
49644;PMS5003;36494;50.730;-1.932;2023-05-16T12:57:49;6;6;
49644;PMS5003;36494;50.730;-1.932;2023-05-16T13:00:15;3;3;
49644;PMS5003;36494;50.730;-1.932;2023-05-16T13:02:40;3;3;
49644;PMS5003;36494;50.730;-1.932;2023-05-16T13:05:05;3;3;
49644;PMS5003;36494;50.730;-1.932;2023-05-16T13:07:30;3;3;
49644;PMS5003;36494;50.730;-1.932;2023-05-16T13:09:55;1;1;
49644;PMS5003;36494;50.730;-1.932;2023-05-16T13:12:20;6;5;
49644;PMS5003;36494;50.730;-1.932;2023-05-16T13:14:46;5;5;
49644;PMS5003;36494;50.730;-1.932;2023-05-16T13:17:11;3;3;
49644;PMS5003;36494;50.730;-1.932;2023-05-16T13:19:36;3;3;
49644;PMS5003;36494;50.730;-1.932;2023-05-16T13:22:02;4;3;
49644;PMS5003;36494;50.730;-1.932;2023-05-16T13:24:27;4;4;
49644;PMS5003;36494;50.730;-1.932;2023-05-16T13:26:52;4;4;
49644;PMS5003;36494;50.730;-1.932;2023-05-16T13:29:17;4;4;
49644;PMS5003;36494;50.730;-1.932;2023-05-16T13:31:42;3;3;
49644;PMS5003;36494;50.730;-1.932;2023-05-16T13:34:08;5;5;
49644;PMS5003;36494;50.730;-1.932;2023-05-16T13:36:33;4;4;
49644;PMS5003;36494;50.730;-1.932;2023-05-16T13:38:58;5;5;
49644;PMS5003;36494;50.730;-1.932;2023-05-16T13:41:23;4;4;
49644;PMS5003;36494;50.730;-1.932;2023-05-16T13:43:49;5;5;
49644;PMS5003;36494;50.730;-1.932;2023-05-16T13:46:14;4;4;
49644;PMS5003;36494;50.730;-1.932;2023-05-16T13:48:39;5;5;
49644;PMS5003;36494;50.730;-1.932;2023-05-16T13:51:04;3;3;
49644;PMS5003;36494;50.730;-1.932;2023-05-16T13:53:30;9;8;
49644;PMS5003;36494;50.730;-1.932;2023-05-16T13:55:55;6;6;
49644;PMS5003;36494;50.730;-1.932;2023-05-16T13:58:20;6;6;
49644;PMS5003;36494;50.730;-1.932;2023-05-16T14:00:46;5;4;
49644;PMS5003;36494;50.730;-1.932;2023-05-16T14:03:11;7;7;
49644;PMS5003;36494;50.730;-1.932;2023-05-16T14:05:37;6;5;
49644;PMS5003;36494;50.730;-1.932;2023-05-16T14:08:02;5;5;
49644;PMS5003;36494;50.730;-1.932;2023-05-16T14:10:27;6;5;
49644;PMS5003;36494;50.730;-1.932;2023-05-16T14:12:52;7;7;
49644;PMS5003;36494;50.730;-1.932;2023-05-16T14:15:18;6;6;
49644;PMS5003;36494;50.730;-1.932;2023-05-16T14:17:43;6;4;
49644;PMS5003;36494;50.730;-1.932;2023-05-16T14:20:09;7;7;
49644;PMS5003;36494;50.730;-1.932;2023-05-16T14:22:34;6;5;
49644;PMS5003;36494;50.730;-1.932;2023-05-16T14:24:59;5;5;
49644;PMS5003;36494;50.730;-1.932;2023-05-16T14:27:24;6;5;
49644;PMS5003;36494;50.730;-1.932;2023-05-16T14:29:49;6;6;
49644;PMS5003;36494;50.730;-1.932;2023-05-16T14:32:14;7;7;
49644;PMS5003;36494;50.730;-1.932;2023-05-16T14:34:40;6;6;
49644;PMS5003;36494;50.730;-1.932;2023-05-16T14:37:05;4;4;
49644;PMS5003;36494;50.730;-1.932;2023-05-16T14:39:30;5;5;
49644;PMS5003;36494;50.730;-1.932;2023-05-16T14:41:56;8;7;
49644;PMS5003;36494;50.730;-1.932;2023-05-16T14:44:21;6;5;
49644;PMS5003;36494;50.730;-1.932;2023-05-16T14:46:46;7;7;
49644;PMS5003;36494;50.730;-1.932;2023-05-16T14:49:12;6;6;
49644;PMS5003;36494;50.730;-1.932;2023-05-16T14:51:37;5;5;
49644;PMS5003;36494;50.730;-1.932;2023-05-16T14:54:03;5;5;
49644;PMS5003;36494;50.730;-1.932;2023-05-16T14:56:28;6;6;
49644;PMS5003;36494;50.730;-1.932;2023-05-16T14:58:53;7;7;
49644;PMS5003;36494;50.730;-1.932;2023-05-16T15:01:18;8;7;
49644;PMS5003;36494;50.730;-1.932;2023-05-16T15:03:44;8;8;
49644;PMS5003;36494;50.730;-1.932;2023-05-16T15:06:09;6;6;
49644;PMS5003;36494;50.730;-1.932;2023-05-16T15:08:34;6;5;
49644;PMS5003;36494;50.730;-1.932;2023-05-16T15:10:59;7;6;
49644;PMS5003;36494;50.730;-1.932;2023-05-16T15:13:25;6;6;
49644;PMS5003;36494;50.730;-1.932;2023-05-16T15:15:50;9;9;
49644;PMS5003;36494;50.730;-1.932;2023-05-16T15:18:16;7;7;
49644;PMS5003;36494;50.730;-1.932;2023-05-16T15:20:41;9;8;
49644;PMS5003;36494;50.730;-1.932;2023-05-16T15:23:06;6;6;
49644;PMS5003;36494;50.730;-1.932;2023-05-16T15:25:32;11;8;
49644;PMS5003;36494;50.730;-1.932;2023-05-16T15:27:57;7;7;
49644;PMS5003;36494;50.730;-1.932;2023-05-16T15:30:22;7;6;
49644;PMS5003;36494;50.730;-1.932;2023-05-16T15:32:48;6;5;
49644;PMS5003;36494;50.730;-1.932;2023-05-16T15:35:13;7;7;
49644;PMS5003;36494;50.730;-1.932;2023-05-16T15:37:38;8;8;
49644;PMS5003;36494;50.730;-1.932;2023-05-16T15:40:04;9;8;
49644;PMS5003;36494;50.730;-1.932;2023-05-16T15:42:29;7;7;
49644;PMS5003;36494;50.730;-1.932;2023-05-16T15:44:54;6;6;
49644;PMS5003;36494;50.730;-1.932;2023-05-16T15:47:20;6;6;
49644;PMS5003;36494;50.730;-1.932;2023-05-16T15:49:45;7;7;
49644;PMS5003;36494;50.730;-1.932;2023-05-16T15:52:11;7;7;
49644;PMS5003;36494;50.730;-1.932;2023-05-16T15:54:36;6;6;
49644;PMS5003;36494;50.730;-1.932;2023-05-16T15:57:01;7;6;
49644;PMS5003;36494;50.730;-1.932;2023-05-16T15:59:27;6;6;
49644;PMS5003;36494;50.730;-1.932;2023-05-16T16:01:52;11;10;
49644;PMS5003;36494;50.730;-1.932;2023-05-16T16:04:19;6;6;
49644;PMS5003;36494;50.730;-1.932;2023-05-16T16:06:43;6;6;
49644;PMS5003;36494;50.730;-1.932;2023-05-16T16:09:09;7;7;
49644;PMS5003;36494;50.730;-1.932;2023-05-16T16:11:34;9;8;
49644;PMS5003;36494;50.730;-1.932;2023-05-16T16:13:59;7;7;
49644;PMS5003;36494;50.730;-1.932;2023-05-16T16:16:24;7;7;
49644;PMS5003;36494;50.730;-1.932;2023-05-16T16:18:51;8;8;
49644;PMS5003;36494;50.730;-1.932;2023-05-16T16:21:16;9;9;
49644;PMS5003;36494;50.730;-1.932;2023-05-16T16:23:42;6;6;
49644;PMS5003;36494;50.730;-1.932;2023-05-16T16:26:07;9;9;
49644;PMS5003;36494;50.730;-1.932;2023-05-16T16:28:32;10;8;